Aérodrome :
LOGIN :

S'inscrire | Disclaimer

   EN    FR    IT 

 










Légende :    VFR   VFR Marginal   IFR   IFR Intensif   IFR Très Intensif
Visi : 
Plafond : 
>= 8 km
>= 3000ft
5 à 8 km
1000 à 3000 ft
1500m à 5 km
500 à 1000 ft
800 à 1500m
200 à 500 ft
< 800m
< 200 ft
Symboles :   Orages  Brouillard  Fortes neiges  Fortes précipitations  Vent > 20 kt
SIGMETs :   Divers  Orages  Givrage  Turbulence  Onde Orograph.  Cendres Volcan.






- Altitude de l'aérodrome : 2425 ft


ETHA - Altenstadt Army

DERNIER METAR :
  • 221620Z 06006KT 0100 FZFG VV000 M02/M02 Q1031 BLACKRED RED

METARs EXPIRÉS :
  • 221539Z 05008KT 0200 FZFG VV000 M02/M03 Q1030 BLACKRED RED
  • 221532Z 05009KT 0400 FZFG BKN001 M01/M02 Q1031 BLACKRED RED
  • 221420Z 11001KT 9999 FEW300 03/M01 Q1030 BLACKBLU+BLU+

TAF AMD TAF ETHA
Valide du 22 à 15h jusqu'au 23 à 00h UTC


221519Z 2215/2224 06005KT 3000 BR FEW003
BECMG 2215/2217 VRB01KT 0300 FZFG VV001



MET'MAP, la Météo Aéronautique d'un coup d'oeil ! - Copyright ORBIFLY Décembre 2007 - Disclaimer

ORBIFLY MET'MAP TEAM :

Programmation & Développement : Alexandra Zaïnal
Sur une idée originale de : Baudouin d'Aumeries
Assistance à la programmation : Marc-Olivier Méhu
Soutien technique & logistique : Manuel Goepfert

Contact : metmap@orbifly.com




SOURCES & CREDITS :

   NOAA